Wellsburg, North Dakota
Current Conditions -  °F | °C
As of 9:35 AM on Wednesday 26 Nov 2014 (Local Time) from K5H4 Reporting Station
Scattered Clouds Scattered Clouds  
Wind Chill: -22°   Ceiling: Unl
Heat Index: -17°   Visibility: 10mi
Dew Point: -19°   Wind: 5mph
Humidity: 85%   Direction: 20°NNE
Pressure: 30.37"   Gusts: NA
Location:  47.7822°N, 99.8441°W
Report Text: K5H4 261535Z AUTO 02004KT 10SM FEW002 SCT008 M17/M19 A3037 RMK AO2
Loading
Personal Weather Stations






























Interactive Weather Map New forecast layout! Learn more

10-Day Weather Forecast

Advertisements
Track Severe Weather on mobile